sensor_id;sensor_type;location;lat;lon;timestamp;temperature;humidity
64209;DHT22;50527;52.414;13.226;2023-02-15T00:01:37;3.40;96.10
64209;DHT22;50527;52.414;13.226;2023-02-15T00:04:04;3.30;97.10
64209;DHT22;50527;52.414;13.226;2023-02-15T00:06:30;3.30;96.10
64209;DHT22;50527;52.414;13.226;2023-02-15T00:08:55;3.20;96.70
64209;DHT22;50527;52.414;13.226;2023-02-15T00:11:21;3.10;97.60
64209;DHT22;50527;52.414;13.226;2023-02-15T00:14:07;3.20;98.00
64209;DHT22;50527;52.414;13.226;2023-02-15T00:16:34;3.20;98.40
64209;DHT22;50527;52.414;13.226;2023-02-15T00:18:59;3.20;97.80
64209;DHT22;50527;52.414;13.226;2023-02-15T00:21:29;3.30;97.90
64209;DHT22;50527;52.414;13.226;2023-02-15T00:23:57;3.20;97.60
64209;DHT22;50527;52.414;13.226;2023-02-15T00:26:22;3.20;96.70
64209;DHT22;50527;52.414;13.226;2023-02-15T00:28:48;3.10;96.00
64209;DHT22;50527;52.414;13.226;2023-02-15T00:31:13;3.00;96.90
64209;DHT22;50527;52.414;13.226;2023-02-15T00:33:39;3.00;97.30
64209;DHT22;50527;52.414;13.226;2023-02-15T00:36:07;3.00;97.30
64209;DHT22;50527;52.414;13.226;2023-02-15T00:38:33;3.00;97.40
64209;DHT22;50527;52.414;13.226;2023-02-15T00:41:01;2.90;96.70
64209;DHT22;50527;52.414;13.226;2023-02-15T00:43:27;2.90;97.30
64209;DHT22;50527;52.414;13.226;2023-02-15T00:45:54;2.80;96.70
64209;DHT22;50527;52.414;13.226;2023-02-15T00:48:21;2.80;96.50
64209;DHT22;50527;52.414;13.226;2023-02-15T00:50:49;2.80;97.10
64209;DHT22;50527;52.414;13.226;2023-02-15T00:53:14;2.80;97.90
64209;DHT22;50527;52.414;13.226;2023-02-15T00:55:40;2.70;98.00
64209;DHT22;50527;52.414;13.226;2023-02-15T00:58:07;2.70;98.50
64209;DHT22;50527;52.414;13.226;2023-02-15T01:00:32;2.70;98.60
64209;DHT22;50527;52.414;13.226;2023-02-15T01:02:58;2.70;98.80
64209;DHT22;50527;52.414;13.226;2023-02-15T01:05:23;2.70;98.00
64209;DHT22;50527;52.414;13.226;2023-02-15T01:07:49;2.70;97.90
64209;DHT22;50527;52.414;13.226;2023-02-15T01:10:14;2.70;97.70
64209;DHT22;50527;52.414;13.226;2023-02-15T01:12:40;2.70;97.70
64209;DHT22;50527;52.414;13.226;2023-02-15T01:15:08;2.60;97.30
64209;DHT22;50527;52.414;13.226;2023-02-15T01:17:37;2.50;97.20
64209;DHT22;50527;52.414;13.226;2023-02-15T01:20:04;2.50;97.10
64209;DHT22;50527;52.414;13.226;2023-02-15T01:22:30;2.50;97.30
64209;DHT22;50527;52.414;13.226;2023-02-15T01:24:55;2.50;97.80
64209;DHT22;50527;52.414;13.226;2023-02-15T01:27:21;2.50;98.50
64209;DHT22;50527;52.414;13.226;2023-02-15T01:29:46;2.50;98.50
64209;DHT22;50527;52.414;13.226;2023-02-15T01:32:12;2.50;98.10
64209;DHT22;50527;52.414;13.226;2023-02-15T01:34:38;2.50;97.70
64209;DHT22;50527;52.414;13.226;2023-02-15T01:37:03;2.50;97.90
64209;DHT22;50527;52.414;13.226;2023-02-15T01:39:29;2.40;97.70
64209;DHT22;50527;52.414;13.226;2023-02-15T01:41:54;2.40;98.00
64209;DHT22;50527;52.414;13.226;2023-02-15T01:44:47;2.40;98.20
64209;DHT22;50527;52.414;13.226;2023-02-15T01:47:17;2.40;98.20
64209;DHT22;50527;52.414;13.226;2023-02-15T01:49:46;2.30;98.10
64209;DHT22;50527;52.414;13.226;2023-02-15T01:52:14;2.30;97.70
64209;DHT22;50527;52.414;13.226;2023-02-15T01:54:41;2.30;97.90
64209;DHT22;50527;52.414;13.226;2023-02-15T01:57:14;2.30;97.40
64209;DHT22;50527;52.414;13.226;2023-02-15T01:59:44;2.30;97.90
64209;DHT22;50527;52.414;13.226;2023-02-15T02:02:13;2.30;97.80
64209;DHT22;50527;52.414;13.226;2023-02-15T02:04:45;2.20;98.00
64209;DHT22;50527;52.414;13.226;2023-02-15T02:07:14;2.20;98.20
64209;DHT22;50527;52.414;13.226;2023-02-15T02:09:41;2.20;98.50
64209;DHT22;50527;52.414;13.226;2023-02-15T02:12:08;2.20;98.30
64209;DHT22;50527;52.414;13.226;2023-02-15T02:14:34;2.20;98.00
64209;DHT22;50527;52.414;13.226;2023-02-15T02:17:18;2.10;98.90
64209;DHT22;50527;52.414;13.226;2023-02-15T02:20:26;2.10;99.00
64209;DHT22;50527;52.414;13.226;2023-02-15T02:23:27;2.00;99.10
64209;DHT22;50527;52.414;13.226;2023-02-15T02:26:36;2.00;99.20
64209;DHT22;50527;52.414;13.226;2023-02-15T02:34:30;2.00;98.90
64209;DHT22;50527;52.414;13.226;2023-02-15T02:42:26;1.90;99.80
64209;DHT22;50527;52.414;13.226;2023-02-15T02:45:00;1.80;99.90
64209;DHT22;50527;52.414;13.226;2023-02-15T02:47:32;1.80;99.70
64209;DHT22;50527;52.414;13.226;2023-02-15T02:50:02;1.80;99.50
64209;DHT22;50527;52.414;13.226;2023-02-15T02:52:50;1.80;99.70
64209;DHT22;50527;52.414;13.226;2023-02-15T02:55:20;1.70;99.90
64209;DHT22;50527;52.414;13.226;2023-02-15T02:57:54;1.80;99.90
64209;DHT22;50527;52.414;13.226;2023-02-15T03:00:23;1.80;99.90
64209;DHT22;50527;52.414;13.226;2023-02-15T03:02:54;1.80;99.90
64209;DHT22;50527;52.414;13.226;2023-02-15T03:05:27;1.80;99.80
64209;DHT22;50527;52.414;13.226;2023-02-15T03:07:55;1.80;99.60
64209;DHT22;50527;52.414;13.226;2023-02-15T03:10:23;1.80;99.40
64209;DHT22;50527;52.414;13.226;2023-02-15T03:12:49;1.80;99.20
64209;DHT22;50527;52.414;13.226;2023-02-15T03:15:23;1.90;99.30
64209;DHT22;50527;52.414;13.226;2023-02-15T03:17:57;1.80;99.30
64209;DHT22;50527;52.414;13.226;2023-02-15T03:20:30;1.70;99.70
64209;DHT22;50527;52.414;13.226;2023-02-15T03:22:58;1.80;99.70
64209;DHT22;50527;52.414;13.226;2023-02-15T03:25:28;1.70;99.90
64209;DHT22;50527;52.414;13.226;2023-02-15T03:28:00;1.70;99.70
64209;DHT22;50527;52.414;13.226;2023-02-15T03:30:28;1.70;99.50
64209;DHT22;50527;52.414;13.226;2023-02-15T03:32:56;1.60;99.90
64209;DHT22;50527;52.414;13.226;2023-02-15T03:35:26;1.60;99.90
64209;DHT22;50527;52.414;13.226;2023-02-15T03:38:00;1.60;99.90
64209;DHT22;50527;52.414;13.226;2023-02-15T03:40:30;1.50;99.90
64209;DHT22;50527;52.414;13.226;2023-02-15T03:43:40;1.50;99.90
64209;DHT22;50527;52.414;13.226;2023-02-15T03:46:25;1.60;99.90
64209;DHT22;50527;52.414;13.226;2023-02-15T03:48:57;1.60;99.90
64209;DHT22;50527;52.414;13.226;2023-02-15T03:51:38;1.50;99.90
64209;DHT22;50527;52.414;13.226;2023-02-15T03:54:10;1.50;99.90
64209;DHT22;50527;52.414;13.226;2023-02-15T03:56:39;1.60;99.90
64209;DHT22;50527;52.414;13.226;2023-02-15T03:59:05;1.60;99.90
64209;DHT22;50527;52.414;13.226;2023-02-15T04:02:08;1.60;99.90
64209;DHT22;50527;52.414;13.226;2023-02-15T04:04:38;1.50;99.10
64209;DHT22;50527;52.414;13.226;2023-02-15T04:07:06;1.60;99.20
64209;DHT22;50527;52.414;13.226;2023-02-15T04:09:32;1.50;99.70
64209;DHT22;50527;52.414;13.226;2023-02-15T04:12:16;1.50;99.90
64209;DHT22;50527;52.414;13.226;2023-02-15T04:14:41;1.50;99.90
64209;DHT22;50527;52.414;13.226;2023-02-15T04:17:26;1.50;99.90
64209;DHT22;50527;52.414;13.226;2023-02-15T04:19:51;1.60;99.30
64209;DHT22;50527;52.414;13.226;2023-02-15T04:22:35;1.60;99.80
64209;DHT22;50527;52.414;13.226;2023-02-15T04:25:19;1.50;99.10
64209;DHT22;50527;52.414;13.226;2023-02-15T04:27:50;1.60;99.40
64209;DHT22;50527;52.414;13.226;2023-02-15T04:30:18;1.60;99.00
64209;DHT22;50527;52.414;13.226;2023-02-15T04:32:44;1.50;99.60
64209;DHT22;50527;52.414;13.226;2023-02-15T04:35:10;1.50;99.90
64209;DHT22;50527;52.414;13.226;2023-02-15T04:37:37;1.50;99.90
64209;DHT22;50527;52.414;13.226;2023-02-15T04:40:03;1.50;99.50
64209;DHT22;50527;52.414;13.226;2023-02-15T04:42:29;1.60;99.80
64209;DHT22;50527;52.414;13.226;2023-02-15T04:44:54;1.60;99.90
64209;DHT22;50527;52.414;13.226;2023-02-15T04:47:20;1.60;99.90
64209;DHT22;50527;52.414;13.226;2023-02-15T04:49:46;1.60;99.90
64209;DHT22;50527;52.414;13.226;2023-02-15T04:52:11;1.50;99.90
64209;DHT22;50527;52.414;13.226;2023-02-15T04:54:36;1.50;99.90
64209;DHT22;50527;52.414;13.226;2023-02-15T04:57:03;1.50;99.90
64209;DHT22;50527;52.414;13.226;2023-02-15T04:59:29;1.60;99.90
64209;DHT22;50527;52.414;13.226;2023-02-15T05:01:54;1.50;99.90
64209;DHT22;50527;52.414;13.226;2023-02-15T05:04:20;1.50;99.90
64209;DHT22;50527;52.414;13.226;2023-02-15T05:06:45;1.50;99.90
64209;DHT22;50527;52.414;13.226;2023-02-15T05:09:11;1.50;99.90
64209;DHT22;50527;52.414;13.226;2023-02-15T05:11:37;1.60;99.90
64209;DHT22;50527;52.414;13.226;2023-02-15T05:14:03;1.60;99.90
64209;DHT22;50527;52.414;13.226;2023-02-15T05:16:29;1.60;99.90
64209;DHT22;50527;52.414;13.226;2023-02-15T05:18:54;1.60;99.90
64209;DHT22;50527;52.414;13.226;2023-02-15T05:21:20;1.70;99.90
64209;DHT22;50527;52.414;13.226;2023-02-15T05:23:45;1.70;99.90
64209;DHT22;50527;52.414;13.226;2023-02-15T05:26:12;1.70;99.90
64209;DHT22;50527;52.414;13.226;2023-02-15T05:28:58;1.70;99.90
64209;DHT22;50527;52.414;13.226;2023-02-15T05:31:23;1.60;99.90
64209;DHT22;50527;52.414;13.226;2023-02-15T05:33:49;1.50;99.90
64209;DHT22;50527;52.414;13.226;2023-02-15T05:36:14;1.50;99.90
64209;DHT22;50527;52.414;13.226;2023-02-15T05:38:40;1.30;99.90
64209;DHT22;50527;52.414;13.226;2023-02-15T05:41:06;1.30;99.90
64209;DHT22;50527;52.414;13.226;2023-02-15T05:43:33;1.20;99.90
64209;DHT22;50527;52.414;13.226;2023-02-15T05:45:58;1.20;99.90
64209;DHT22;50527;52.414;13.226;2023-02-15T05:48:25;1.20;99.90
64209;DHT22;50527;52.414;13.226;2023-02-15T05:51:08;1.30;99.90
64209;DHT22;50527;52.414;13.226;2023-02-15T05:53:36;1.30;99.90
64209;DHT22;50527;52.414;13.226;2023-02-15T05:56:02;1.40;99.90
64209;DHT22;50527;52.414;13.226;2023-02-15T05:58:30;1.40;99.90
64209;DHT22;50527;52.414;13.226;2023-02-15T06:00:56;1.30;99.90
64209;DHT22;50527;52.414;13.226;2023-02-15T06:03:22;1.30;99.90
64209;DHT22;50527;52.414;13.226;2023-02-15T06:05:48;1.20;99.90
64209;DHT22;50527;52.414;13.226;2023-02-15T06:08:14;1.20;99.90
64209;DHT22;50527;52.414;13.226;2023-02-15T06:10:39;1.10;99.90
64209;DHT22;50527;52.414;13.226;2023-02-15T06:13:05;1.10;99.90
64209;DHT22;50527;52.414;13.226;2023-02-15T06:15:31;1.10;99.90
64209;DHT22;50527;52.414;13.226;2023-02-15T06:17:57;1.10;99.90
64209;DHT22;50527;52.414;13.226;2023-02-15T06:20:23;1.00;99.90
64209;DHT22;50527;52.414;13.226;2023-02-15T06:22:48;1.00;99.90
64209;DHT22;50527;52.414;13.226;2023-02-15T06:25:14;1.10;99.90
64209;DHT22;50527;52.414;13.226;2023-02-15T06:27:41;1.10;99.90
64209;DHT22;50527;52.414;13.226;2023-02-15T06:30:08;1.20;99.90
64209;DHT22;50527;52.414;13.226;2023-02-15T06:32:34;1.10;99.90
64209;DHT22;50527;52.414;13.226;2023-02-15T06:35:00;0.90;99.90
64209;DHT22;50527;52.414;13.226;2023-02-15T06:37:25;0.70;99.90
64209;DHT22;50527;52.414;13.226;2023-02-15T06:39:51;0.70;99.90
64209;DHT22;50527;52.414;13.226;2023-02-15T06:42:16;0.70;99.90
64209;DHT22;50527;52.414;13.226;2023-02-15T06:44:43;0.60;99.90
64209;DHT22;50527;52.414;13.226;2023-02-15T06:47:09;0.70;99.90
64209;DHT22;50527;52.414;13.226;2023-02-15T06:49:36;0.70;99.90
64209;DHT22;50527;52.414;13.226;2023-02-15T06:52:01;0.70;99.90
64209;DHT22;50527;52.414;13.226;2023-02-15T06:54:27;0.70;99.90
64209;DHT22;50527;52.414;13.226;2023-02-15T06:56:52;0.70;99.90
64209;DHT22;50527;52.414;13.226;2023-02-15T06:59:18;0.70;99.90
64209;DHT22;50527;52.414;13.226;2023-02-15T07:01:43;0.80;99.90
64209;DHT22;50527;52.414;13.226;2023-02-15T07:04:09;0.80;99.90
64209;DHT22;50527;52.414;13.226;2023-02-15T07:06:35;0.90;99.90
64209;DHT22;50527;52.414;13.226;2023-02-15T07:09:00;0.90;99.90
64209;DHT22;50527;52.414;13.226;2023-02-15T07:11:26;0.90;99.90
64209;DHT22;50527;52.414;13.226;2023-02-15T07:14:10;0.90;99.90
64209;DHT22;50527;52.414;13.226;2023-02-15T07:16:36;0.80;99.90
64209;DHT22;50527;52.414;13.226;2023-02-15T07:19:01;0.90;99.90
64209;DHT22;50527;52.414;13.226;2023-02-15T07:21:27;0.90;99.90
64209;DHT22;50527;52.414;13.226;2023-02-15T07:23:56;1.00;99.90
64209;DHT22;50527;52.414;13.226;2023-02-15T07:26:23;1.00;99.90
64209;DHT22;50527;52.414;13.226;2023-02-15T07:28:48;1.00;99.90
64209;DHT22;50527;52.414;13.226;2023-02-15T07:31:14;1.00;99.90
64209;DHT22;50527;52.414;13.226;2023-02-15T07:33:39;1.00;99.90
64209;DHT22;50527;52.414;13.226;2023-02-15T07:36:05;1.10;99.90
64209;DHT22;50527;52.414;13.226;2023-02-15T07:38:33;1.10;99.90
64209;DHT22;50527;52.414;13.226;2023-02-15T07:41:00;1.10;99.90
64209;DHT22;50527;52.414;13.226;2023-02-15T07:43:26;1.00;99.90
64209;DHT22;50527;52.414;13.226;2023-02-15T07:45:52;1.10;99.90
64209;DHT22;50527;52.414;13.226;2023-02-15T07:48:17;1.10;99.90
64209;DHT22;50527;52.414;13.226;2023-02-15T07:50:43;1.20;99.90
64209;DHT22;50527;52.414;13.226;2023-02-15T07:53:08;1.20;99.90
64209;DHT22;50527;52.414;13.226;2023-02-15T07:55:34;1.20;99.90
64209;DHT22;50527;52.414;13.226;2023-02-15T07:58:00;1.10;99.90
64209;DHT22;50527;52.414;13.226;2023-02-15T08:00:26;1.10;99.90
64209;DHT22;50527;52.414;13.226;2023-02-15T08:02:55;1.30;99.90
64209;DHT22;50527;52.414;13.226;2023-02-15T08:05:43;1.40;99.90
64209;DHT22;50527;52.414;13.226;2023-02-15T08:08:11;1.50;99.90
64209;DHT22;50527;52.414;13.226;2023-02-15T08:10:59;1.50;99.90
64209;DHT22;50527;52.414;13.226;2023-02-15T08:13:45;1.50;99.90
64209;DHT22;50527;52.414;13.226;2023-02-15T08:16:31;1.70;99.90
64209;DHT22;50527;52.414;13.226;2023-02-15T08:18:57;1.70;99.90
64209;DHT22;50527;52.414;13.226;2023-02-15T08:21:26;1.50;99.90
64209;DHT22;50527;52.414;13.226;2023-02-15T08:23:53;1.70;99.90
64209;DHT22;50527;52.414;13.226;2023-02-15T08:26:18;1.60;99.90
64209;DHT22;50527;52.414;13.226;2023-02-15T08:28:45;1.60;99.90
64209;DHT22;50527;52.414;13.226;2023-02-15T08:31:12;1.60;99.90
64209;DHT22;50527;52.414;13.226;2023-02-15T08:33:39;1.70;99.90
64209;DHT22;50527;52.414;13.226;2023-02-15T08:36:14;1.60;99.90
64209;DHT22;50527;52.414;13.226;2023-02-15T08:38:40;1.60;99.90
64209;DHT22;50527;52.414;13.226;2023-02-15T08:41:20;1.60;99.90
64209;DHT22;50527;52.414;13.226;2023-02-15T08:43:54;1.50;99.90
64209;DHT22;50527;52.414;13.226;2023-02-15T08:46:22;1.60;99.90
64209;DHT22;50527;52.414;13.226;2023-02-15T08:48:48;1.70;99.90
64209;DHT22;50527;52.414;13.226;2023-02-15T08:51:16;1.80;99.90
64209;DHT22;50527;52.414;13.226;2023-02-15T08:53:45;1.90;99.90
64209;DHT22;50527;52.414;13.226;2023-02-15T08:56:11;2.00;99.90
64209;DHT22;50527;52.414;13.226;2023-02-15T08:58:37;2.10;99.90
64209;DHT22;50527;52.414;13.226;2023-02-15T09:01:11;2.10;99.90
64209;DHT22;50527;52.414;13.226;2023-02-15T09:03:37;2.40;99.90
64209;DHT22;50527;52.414;13.226;2023-02-15T09:06:03;2.40;99.90
64209;DHT22;50527;52.414;13.226;2023-02-15T09:08:29;2.50;99.90
64209;DHT22;50527;52.414;13.226;2023-02-15T09:11:04;2.40;99.90
64209;DHT22;50527;52.414;13.226;2023-02-15T09:13:30;2.30;99.90
64209;DHT22;50527;52.414;13.226;2023-02-15T09:16:03;2.30;99.90
64209;DHT22;50527;52.414;13.226;2023-02-15T09:18:31;2.40;99.90
64209;DHT22;50527;52.414;13.226;2023-02-15T09:20:57;2.50;99.90
64209;DHT22;50527;52.414;13.226;2023-02-15T09:23:22;2.50;99.90
64209;DHT22;50527;52.414;13.226;2023-02-15T09:25:48;2.50;99.90
64209;DHT22;50527;52.414;13.226;2023-02-15T09:28:13;2.70;99.90
64209;DHT22;50527;52.414;13.226;2023-02-15T09:30:38;2.80;99.90
64209;DHT22;50527;52.414;13.226;2023-02-15T09:33:04;2.90;99.90
64209;DHT22;50527;52.414;13.226;2023-02-15T09:35:29;2.80;99.90
64209;DHT22;50527;52.414;13.226;2023-02-15T09:37:55;2.80;99.90
64209;DHT22;50527;52.414;13.226;2023-02-15T09:40:20;2.90;99.90
64209;DHT22;50527;52.414;13.226;2023-02-15T09:43:09;3.10;99.90
64209;DHT22;50527;52.414;13.226;2023-02-15T09:46:06;3.20;99.90
64209;DHT22;50527;52.414;13.226;2023-02-15T09:48:42;3.20;99.90
64209;DHT22;50527;52.414;13.226;2023-02-15T09:54:40;3.30;99.90
64209;DHT22;50527;52.414;13.226;2023-02-15T09:57:39;3.10;99.90
64209;DHT22;50527;52.414;13.226;2023-02-15T10:00:25;3.30;99.90
64209;DHT22;50527;52.414;13.226;2023-02-15T10:11:38;3.50;99.90
64209;DHT22;50527;52.414;13.226;2023-02-15T10:14:29;3.80;99.90
64209;DHT22;50527;52.414;13.226;2023-02-15T10:17:31;3.90;99.90
64209;DHT22;50527;52.414;13.226;2023-02-15T10:20:35;3.70;99.90
64209;DHT22;50527;52.414;13.226;2023-02-15T10:26:15;3.80;99.90
64209;DHT22;50527;52.414;13.226;2023-02-15T10:29:37;4.10;99.90
64209;DHT22;50527;52.414;13.226;2023-02-15T10:31:51;4.10;99.90
64209;DHT22;50527;52.414;13.226;2023-02-15T10:39:34;4.10;99.90
64209;DHT22;50527;52.414;13.226;2023-02-15T10:42:11;4.20;99.90
64209;DHT22;50527;52.414;13.226;2023-02-15T10:45:08;4.30;99.90
64209;DHT22;50527;52.414;13.226;2023-02-15T10:48:11;4.40;99.90
64209;DHT22;50527;52.414;13.226;2023-02-15T10:50:46;4.70;99.90
64209;DHT22;50527;52.414;13.226;2023-02-15T10:59:12;4.50;99.90
64209;DHT22;50527;52.414;13.226;2023-02-15T11:04:38;5.00;99.90
64209;DHT22;50527;52.414;13.226;2023-02-15T11:07:35;4.90;99.40
64209;DHT22;50527;52.414;13.226;2023-02-15T11:10:29;5.10;99.90
64209;DHT22;50527;52.414;13.226;2023-02-15T11:12:57;5.50;99.10
64209;DHT22;50527;52.414;13.226;2023-02-15T11:15:36;5.80;98.10
64209;DHT22;50527;52.414;13.226;2023-02-15T11:20:44;6.10;98.10
64209;DHT22;50527;52.414;13.226;2023-02-15T11:23:15;6.40;96.10
64209;DHT22;50527;52.414;13.226;2023-02-15T11:25:43;6.60;94.90
64209;DHT22;50527;52.414;13.226;2023-02-15T11:28:18;6.80;94.30
64209;DHT22;50527;52.414;13.226;2023-02-15T11:30:49;7.00;94.70
64209;DHT22;50527;52.414;13.226;2023-02-15T11:33:22;7.20;93.90
64209;DHT22;50527;52.414;13.226;2023-02-15T11:35:53;7.30;94.30
64209;DHT22;50527;52.414;13.226;2023-02-15T11:38:22;7.10;92.50
64209;DHT22;50527;52.414;13.226;2023-02-15T11:40:53;7.20;94.30
64209;DHT22;50527;52.414;13.226;2023-02-15T11:43:47;7.40;92.70
64209;DHT22;50527;52.414;13.226;2023-02-15T11:46:14;7.40;92.80
64209;DHT22;50527;52.414;13.226;2023-02-15T11:48:40;7.40;91.80
64209;DHT22;50527;52.414;13.226;2023-02-15T11:51:12;7.40;92.90
64209;DHT22;50527;52.414;13.226;2023-02-15T11:53:38;7.50;92.60
64209;DHT22;50527;52.414;13.226;2023-02-15T11:56:04;7.50;92.40
64209;DHT22;50527;52.414;13.226;2023-02-15T11:59:05;7.50;92.60
64209;DHT22;50527;52.414;13.226;2023-02-15T12:01:32;7.60;92.80
64209;DHT22;50527;52.414;13.226;2023-02-15T12:06:29;7.60;92.20
64209;DHT22;50527;52.414;13.226;2023-02-15T12:09:04;7.60;92.80
64209;DHT22;50527;52.414;13.226;2023-02-15T12:11:35;7.60;92.40
64209;DHT22;50527;52.414;13.226;2023-02-15T12:14:09;7.60;92.30
64209;DHT22;50527;52.414;13.226;2023-02-15T12:16:45;7.70;92.80
64209;DHT22;50527;52.414;13.226;2023-02-15T12:19:37;7.80;93.00
64209;DHT22;50527;52.414;13.226;2023-02-15T12:22:04;8.00;92.00
64209;DHT22;50527;52.414;13.226;2023-02-15T12:24:31;7.90;91.00
64209;DHT22;50527;52.414;13.226;2023-02-15T12:27:03;8.10;91.10
64209;DHT22;50527;52.414;13.226;2023-02-15T12:29:45;8.10;91.00
64209;DHT22;50527;52.414;13.226;2023-02-15T12:32:33;8.20;91.30
64209;DHT22;50527;52.414;13.226;2023-02-15T12:35:07;8.20;90.90
64209;DHT22;50527;52.414;13.226;2023-02-15T12:37:33;8.30;90.90
64209;DHT22;50527;52.414;13.226;2023-02-15T12:40:01;8.20;90.40
64209;DHT22;50527;52.414;13.226;2023-02-15T12:42:40;8.30;91.00
64209;DHT22;50527;52.414;13.226;2023-02-15T12:50:33;8.60;90.50
64209;DHT22;50527;52.414;13.226;2023-02-15T12:53:22;8.60;90.50
64209;DHT22;50527;52.414;13.226;2023-02-15T12:56:01;8.70;89.30
64209;DHT22;50527;52.414;13.226;2023-02-15T13:01:18;8.80;88.90
64209;DHT22;50527;52.414;13.226;2023-02-15T13:04:01;8.80;89.30
64209;DHT22;50527;52.414;13.226;2023-02-15T13:06:31;8.80;89.00
64209;DHT22;50527;52.414;13.226;2023-02-15T13:09:06;8.80;89.00
64209;DHT22;50527;52.414;13.226;2023-02-15T13:11:32;8.90;89.60
64209;DHT22;50527;52.414;13.226;2023-02-15T13:14:01;9.00;88.50
64209;DHT22;50527;52.414;13.226;2023-02-15T13:16:38;9.00;89.50
64209;DHT22;50527;52.414;13.226;2023-02-15T13:19:18;9.00;88.90
64209;DHT22;50527;52.414;13.226;2023-02-15T13:21:47;9.00;89.00
64209;DHT22;50527;52.414;13.226;2023-02-15T13:26:47;9.20;88.90
64209;DHT22;50527;52.414;13.226;2023-02-15T13:29:28;9.30;89.10
64209;DHT22;50527;52.414;13.226;2023-02-15T13:31:56;9.40;88.80
64209;DHT22;50527;52.414;13.226;2023-02-15T13:34:34;9.50;88.60
64209;DHT22;50527;52.414;13.226;2023-02-15T13:37:15;9.60;87.60
64209;DHT22;50527;52.414;13.226;2023-02-15T13:40:01;9.70;86.50
64209;DHT22;50527;52.414;13.226;2023-02-15T13:42:40;9.80;85.70
64209;DHT22;50527;52.414;13.226;2023-02-15T13:45:47;9.80;85.60
64209;DHT22;50527;52.414;13.226;2023-02-15T13:51:17;9.90;83.90
64209;DHT22;50527;52.414;13.226;2023-02-15T14:00:03;10.00;82.80
64209;DHT22;50527;52.414;13.226;2023-02-15T14:08:01;10.10;82.60
64209;DHT22;50527;52.414;13.226;2023-02-15T14:16:03;10.10;82.90
64209;DHT22;50527;52.414;13.226;2023-02-15T14:18:42;10.20;83.20
64209;DHT22;50527;52.414;13.226;2023-02-15T14:21:17;10.20;80.80
64209;DHT22;50527;52.414;13.226;2023-02-15T14:31:46;10.30;80.80
64209;DHT22;50527;52.414;13.226;2023-02-15T14:34:27;10.30;80.70
64209;DHT22;50527;52.414;13.226;2023-02-15T14:36:55;10.40;79.40
64209;DHT22;50527;52.414;13.226;2023-02-15T14:39:32;10.40;80.30
64209;DHT22;50527;52.414;13.226;2023-02-15T14:42:34;10.40;80.60
64209;DHT22;50527;52.414;13.226;2023-02-15T14:45:22;10.40;79.20
64209;DHT22;50527;52.414;13.226;2023-02-15T14:50:39;10.30;77.90
64209;DHT22;50527;52.414;13.226;2023-02-15T15:01:15;10.00;79.00
64209;DHT22;50527;52.414;13.226;2023-02-15T15:03:50;9.90;80.50
64209;DHT22;50527;52.414;13.226;2023-02-15T15:06:32;9.90;78.70
64209;DHT22;50527;52.414;13.226;2023-02-15T15:09:09;9.80;79.70
64209;DHT22;50527;52.414;13.226;2023-02-15T15:11:41;9.90;79.30
64209;DHT22;50527;52.414;13.226;2023-02-15T15:14:08;9.80;79.70
64209;DHT22;50527;52.414;13.226;2023-02-15T15:19:04;9.80;80.00
64209;DHT22;50527;52.414;13.226;2023-02-15T15:24:45;9.70;81.50
64209;DHT22;50527;52.414;13.226;2023-02-15T15:38:38;9.40;85.20
64209;DHT22;50527;52.414;13.226;2023-02-15T15:49:24;9.00;88.80
64209;DHT22;50527;52.414;13.226;2023-02-15T15:51:50;8.90;90.30
64209;DHT22;50527;52.414;13.226;2023-02-15T15:54:21;8.70;90.70
64209;DHT22;50527;52.414;13.226;2023-02-15T15:56:51;8.70;91.10
64209;DHT22;50527;52.414;13.226;2023-02-15T15:59:25;8.60;91.60
64209;DHT22;50527;52.414;13.226;2023-02-15T16:01:51;8.50;91.90
64209;DHT22;50527;52.414;13.226;2023-02-15T16:04:28;8.30;92.10
64209;DHT22;50527;52.414;13.226;2023-02-15T16:06:56;8.20;92.40
64209;DHT22;50527;52.414;13.226;2023-02-15T16:09:26;8.10;92.70
64209;DHT22;50527;52.414;13.226;2023-02-15T16:11:59;8.00;93.00
64209;DHT22;50527;52.414;13.226;2023-02-15T16:14:37;7.90;93.40
64209;DHT22;50527;52.414;13.226;2023-02-15T16:17:12;7.90;93.60
64209;DHT22;50527;52.414;13.226;2023-02-15T16:19:40;7.80;93.50
64209;DHT22;50527;52.414;13.226;2023-02-15T16:22:12;7.80;93.60
64209;DHT22;50527;52.414;13.226;2023-02-15T16:24:54;7.60;93.80
64209;DHT22;50527;52.414;13.226;2023-02-15T16:29:53;7.50;94.30
64209;DHT22;50527;52.414;13.226;2023-02-15T16:32:21;7.40;94.20
64209;DHT22;50527;52.414;13.226;2023-02-15T16:35:14;7.20;93.90
64209;DHT22;50527;52.414;13.226;2023-02-15T16:37:40;7.20;93.50
64209;DHT22;50527;52.414;13.226;2023-02-15T16:40:06;7.10;93.90
64209;DHT22;50527;52.414;13.226;2023-02-15T16:42:38;7.10;94.40
64209;DHT22;50527;52.414;13.226;2023-02-15T16:45:12;7.10;94.70
64209;DHT22;50527;52.414;13.226;2023-02-15T16:47:51;7.10;94.50
64209;DHT22;50527;52.414;13.226;2023-02-15T16:50:22;6.90;94.20
64209;DHT22;50527;52.414;13.226;2023-02-15T16:52:49;6.80;94.00
64209;DHT22;50527;52.414;13.226;2023-02-15T16:55:20;6.80;93.70
64209;DHT22;50527;52.414;13.226;2023-02-15T16:57:47;6.70;94.60
64209;DHT22;50527;52.414;13.226;2023-02-15T17:00:19;6.80;95.10
64209;DHT22;50527;52.414;13.226;2023-02-15T17:03:04;6.80;94.60
64209;DHT22;50527;52.414;13.226;2023-02-15T17:05:51;6.60;93.60
64209;DHT22;50527;52.414;13.226;2023-02-15T17:08:19;6.60;95.30
64209;DHT22;50527;52.414;13.226;2023-02-15T17:11:12;6.60;95.50
64209;DHT22;50527;52.414;13.226;2023-02-15T17:13:38;6.40;95.00
64209;DHT22;50527;52.414;13.226;2023-02-15T17:18:34;6.40;95.90
64209;DHT22;50527;52.414;13.226;2023-02-15T17:21:18;6.40;95.90
64209;DHT22;50527;52.414;13.226;2023-02-15T17:23:49;6.40;96.40
64209;DHT22;50527;52.414;13.226;2023-02-15T17:26:21;6.40;96.00
64209;DHT22;50527;52.414;13.226;2023-02-15T17:28:56;6.40;95.20
64209;DHT22;50527;52.414;13.226;2023-02-15T17:31:25;6.20;94.50
64209;DHT22;50527;52.414;13.226;2023-02-15T17:33:55;6.10;95.90
64209;DHT22;50527;52.414;13.226;2023-02-15T17:36:23;6.10;95.90
64209;DHT22;50527;52.414;13.226;2023-02-15T17:41:30;6.00;96.50
64209;DHT22;50527;52.414;13.226;2023-02-15T17:43:56;6.00;96.40
64209;DHT22;50527;52.414;13.226;2023-02-15T17:46:22;6.00;96.10
64209;DHT22;50527;52.414;13.226;2023-02-15T17:48:50;6.00;96.10
64209;DHT22;50527;52.414;13.226;2023-02-15T17:51:16;5.90;96.40
64209;DHT22;50527;52.414;13.226;2023-02-15T17:53:42;5.90;96.70
64209;DHT22;50527;52.414;13.226;2023-02-15T17:56:35;5.90;96.40
64209;DHT22;50527;52.414;13.226;2023-02-15T17:59:01;5.80;95.80
64209;DHT22;50527;52.414;13.226;2023-02-15T18:01:26;5.80;95.60
64209;DHT22;50527;52.414;13.226;2023-02-15T18:04:12;5.70;95.60
64209;DHT22;50527;52.414;13.226;2023-02-15T18:06:57;5.50;97.20